createdAt,value
2023-04-03T00:01:12.354Z,100503.22
2023-04-03T00:03:39.472Z,100504.22
2023-04-03T00:06:11.717Z,100503.38
2023-04-03T00:08:39.832Z,100495.53
2023-04-03T00:11:07.671Z,100507.56
2023-04-03T00:13:35.322Z,100509.91
2023-04-03T00:16:04.412Z,100509.38
2023-04-03T00:18:31.533Z,100503.31
2023-04-03T00:20:59.182Z,100502.59
2023-04-03T00:23:26.280Z,100506.34
2023-04-03T00:25:54.319Z,100513.69
2023-04-03T00:28:21.690Z,100512.03
2023-04-03T00:30:51.465Z,100516.19
2023-04-03T00:33:18.423Z,100523.16
2023-04-03T00:35:45.666Z,100523.59
2023-04-03T00:38:12.724Z,100527.69
2023-04-03T00:40:44.044Z,100532.28
2023-04-03T00:43:20.025Z,100528.59
2023-04-03T00:45:50.316Z,100526.28
2023-04-03T00:48:22.172Z,100527.16
2023-04-03T00:50:49.711Z,100527.34
2023-04-03T00:53:28.904Z,100533.47
2023-04-03T00:55:57.728Z,100528.66
2023-04-03T00:58:35.379Z,100525.84
2023-04-03T01:01:06.632Z,100520.50
2023-04-03T01:03:33.749Z,100520.09
2023-04-03T01:06:01.101Z,100524.69
2023-04-03T01:08:28.183Z,100528.37
2023-04-03T01:10:55.161Z,100543.13
2023-04-03T01:13:29.595Z,100540.72
2023-04-03T01:15:56.763Z,100541.22
2023-04-03T01:18:26.493Z,100542.34
2023-04-03T01:20:56.812Z,100545.84
2023-04-03T01:23:55.954Z,100543.16
2023-04-03T01:26:23.007Z,100541.19
2023-04-03T01:28:49.923Z,100541.87
2023-04-03T01:31:26.446Z,100552.00
2023-04-03T01:33:53.833Z,100539.91
2023-04-03T01:36:25.679Z,100534.00
2023-04-03T01:38:54.586Z,100544.81
2023-04-03T01:41:22.407Z,100538.50
2023-04-03T01:43:50.468Z,100551.09
2023-04-03T01:46:19.143Z,100548.78
2023-04-03T01:48:46.574Z,100563.94
2023-04-03T01:51:13.885Z,100546.31
2023-04-03T01:53:41.004Z,100553.59
2023-04-03T01:56:08.965Z,100542.75
2023-04-03T01:58:36.012Z,100542.34
2023-04-03T02:01:03.613Z,100546.97
2023-04-03T02:03:30.986Z,100541.97
2023-04-03T02:05:58.410Z,100550.03
2023-04-03T02:08:25.727Z,100547.91
2023-04-03T02:10:53.031Z,100547.59
2023-04-03T02:13:20.593Z,100536.72
2023-04-03T02:15:47.833Z,100537.47
2023-04-03T02:18:15.723Z,100534.97
2023-04-03T02:20:42.831Z,100525.63
2023-04-03T02:23:10.102Z,100523.06
2023-04-03T02:25:38.836Z,100535.37
2023-04-03T02:28:06.790Z,100533.59
2023-04-03T02:30:34.263Z,100535.22
2023-04-03T02:33:01.572Z,100530.16
2023-04-03T02:35:29.057Z,100524.16
2023-04-03T02:37:56.113Z,100530.38
2023-04-03T02:40:23.217Z,100525.47
2023-04-03T02:42:50.228Z,100527.88
2023-04-03T02:45:17.322Z,100528.84
2023-04-03T02:47:44.434Z,100526.28
2023-04-03T02:50:11.524Z,100529.38
2023-04-03T02:52:39.756Z,100527.00
2023-04-03T02:55:10.062Z,100537.81
2023-04-03T02:57:37.600Z,100530.62
2023-04-03T03:00:05.222Z,100535.06
2023-04-03T03:02:32.660Z,100538.69
2023-04-03T03:05:01.204Z,100541.69
2023-04-03T03:07:28.185Z,100546.50
2023-04-03T03:09:56.172Z,100551.94
2023-04-03T03:12:24.613Z,100548.53
2023-04-03T03:14:52.206Z,100553.69
2023-04-03T03:17:19.531Z,100555.00
2023-04-03T03:19:47.323Z,100551.47
2023-04-03T03:22:14.557Z,100558.34
2023-04-03T03:24:41.670Z,100562.19
2023-04-03T03:27:09.959Z,100567.34
2023-04-03T03:29:37.192Z,100568.31
2023-04-03T03:32:04.372Z,100573.84
2023-04-03T03:34:31.520Z,100580.06
2023-04-03T03:36:58.966Z,100577.06
2023-04-03T03:39:26.179Z,100584.38
2023-04-03T03:41:54.671Z,100582.81
2023-04-03T03:44:22.422Z,100581.28
2023-04-03T03:46:49.489Z,100583.78
2023-04-03T03:49:16.622Z,100577.91
2023-04-03T03:51:43.907Z,100574.22
2023-04-03T03:54:11.371Z,100573.56
2023-04-03T03:56:38.471Z,100570.25
2023-04-03T03:59:05.654Z,100560.41
2023-04-03T04:01:33.833Z,100564.34
2023-04-03T04:04:01.064Z,100554.63
2023-04-03T04:06:28.090Z,100561.25
2023-04-03T04:08:55.395Z,100567.13
2023-04-03T04:11:23.185Z,100559.06
2023-04-03T04:13:50.485Z,100564.72
2023-04-03T04:16:17.737Z,100562.22
2023-04-03T04:18:44.919Z,100565.87
2023-04-03T04:21:12.067Z,100564.31
2023-04-03T04:23:39.090Z,100562.87
2023-04-03T04:26:06.234Z,100545.78
2023-04-03T04:28:33.365Z,100565.75
2023-04-03T04:31:00.633Z,100561.97
2023-04-03T04:33:27.768Z,100572.72
2023-04-03T04:35:55.005Z,100575.16
2023-04-03T04:38:23.161Z,100578.81
2023-04-03T04:40:50.351Z,100581.22
2023-04-03T04:43:21.794Z,100592.69
2023-04-03T04:45:49.280Z,100596.56
2023-04-03T04:48:17.937Z,100596.53
2023-04-03T04:50:45.664Z,100599.66
2023-04-03T04:53:12.650Z,100600.59
2023-04-03T04:55:39.613Z,100607.78
2023-04-03T04:58:06.679Z,100612.00
2023-04-03T05:00:33.689Z,100605.97
2023-04-03T05:03:00.702Z,100600.25
2023-04-03T05:05:28.856Z,100607.00
2023-04-03T05:07:56.064Z,100605.44
2023-04-03T05:10:23.146Z,100607.47
2023-04-03T05:12:50.228Z,100612.50
2023-04-03T05:15:17.374Z,100617.59
2023-04-03T05:17:44.562Z,100608.16
2023-04-03T05:20:14.334Z,100607.59
2023-04-03T05:22:41.374Z,100602.00
2023-04-03T05:25:09.088Z,100599.47
2023-04-03T05:27:36.195Z,100591.69
2023-04-03T05:30:04.103Z,100581.09
2023-04-03T05:32:31.045Z,100587.50
2023-04-03T05:34:59.993Z,100598.16
2023-04-03T05:37:27.835Z,100597.53
2023-04-03T05:39:54.774Z,100599.44
2023-04-03T05:42:23.721Z,100592.31
2023-04-03T05:44:51.423Z,100593.81
2023-04-03T05:47:21.561Z,100606.16
2023-04-03T05:49:48.507Z,100600.28
2023-04-03T05:52:29.654Z,100597.59
2023-04-03T05:54:57.272Z,100593.34
2023-04-03T05:57:24.756Z,100595.06
2023-04-03T05:59:51.998Z,100602.97
2023-04-03T06:02:22.479Z,100608.09
2023-04-03T06:04:50.776Z,100612.38
2023-04-03T06:07:23.802Z,100605.50
2023-04-03T06:09:54.318Z,100614.19
2023-04-03T06:12:22.401Z,100623.69
2023-04-03T06:14:49.886Z,100616.91
2023-04-03T06:17:21.793Z,100625.34
2023-04-03T06:19:52.797Z,100630.34
2023-04-03T06:22:22.303Z,100628.28
2023-04-03T06:24:51.464Z,100631.47
2023-04-03T06:27:35.587Z,100645.19
2023-04-03T06:30:02.973Z,100651.22
2023-04-03T06:32:30.181Z,100652.56
2023-04-03T06:35:00.453Z,100657.87
2023-04-03T06:37:27.561Z,100657.09
2023-04-03T06:39:54.661Z,100658.75
2023-04-03T06:42:22.217Z,100651.97
2023-04-03T06:44:50.212Z,100661.50
2023-04-03T06:47:18.023Z,100646.59
2023-04-03T06:49:45.716Z,100650.41
2023-04-03T06:52:15.877Z,100661.94
2023-04-03T06:54:44.331Z,100652.81
2023-04-03T06:57:12.126Z,100661.19
2023-04-03T06:59:45.532Z,100660.44
2023-04-03T07:02:14.663Z,100665.72
2023-04-03T07:04:42.861Z,100666.28
2023-04-03T07:07:16.468Z,100665.41
2023-04-03T07:09:48.028Z,100665.59
2023-04-03T07:12:15.294Z,100684.72
2023-04-03T07:14:42.929Z,100669.94
2023-04-03T07:17:10.011Z,100670.34
2023-04-03T07:19:37.435Z,100674.41
2023-04-03T07:22:08.751Z,100688.97
2023-04-03T07:24:36.100Z,100682.69
2023-04-03T07:27:03.921Z,100669.59
2023-04-03T07:29:32.464Z,100672.78
2023-04-03T07:31:59.559Z,100686.22
2023-04-03T07:34:28.885Z,100686.41
2023-04-03T07:36:58.201Z,100689.16
2023-04-03T07:39:26.992Z,100699.06
2023-04-03T07:41:56.104Z,100678.94
2023-04-03T07:44:24.249Z,100683.72
2023-04-03T07:46:51.812Z,100693.88
2023-04-03T07:49:20.197Z,100699.19
2023-04-03T07:51:47.923Z,100707.22
2023-04-03T07:54:15.052Z,100707.19
2023-04-03T07:56:48.006Z,100695.56
2023-04-03T07:59:18.539Z,100688.88
2023-04-03T08:01:45.519Z,100699.91
2023-04-03T08:04:12.784Z,100691.91
2023-04-03T08:06:46.625Z,100699.66
2023-04-03T08:09:16.616Z,100696.06
2023-04-03T08:11:45.948Z,100689.19
2023-04-03T08:14:17.992Z,100692.75
2023-04-03T08:16:47.425Z,100696.94
2023-04-03T08:19:22.463Z,100691.28
2023-04-03T08:21:54.459Z,100695.34
2023-04-03T08:24:21.590Z,100695.94
2023-04-03T08:26:48.509Z,100712.41
2023-04-03T08:29:15.675Z,100708.94
2023-04-03T08:31:42.664Z,100702.25
2023-04-03T08:34:09.914Z,100715.06
2023-04-03T08:36:37.320Z,100712.44
2023-04-03T08:39:05.337Z,100710.91
2023-04-03T08:41:40.265Z,100717.16
2023-04-03T08:44:39.914Z,100711.56
2023-04-03T08:47:13.072Z,100721.97
2023-04-03T08:49:54.459Z,100721.03
2023-04-03T08:52:33.323Z,100719.59
2023-04-03T08:55:02.827Z,100720.66
2023-04-03T08:57:37.794Z,100712.13
2023-04-03T09:00:23.722Z,100707.34
2023-04-03T09:03:01.120Z,100710.00
2023-04-03T09:06:06.836Z,100716.84
2023-04-03T09:08:48.201Z,100723.38
2023-04-03T09:11:31.760Z,100714.47
2023-04-03T09:14:18.293Z,100728.56
2023-04-03T09:16:59.465Z,100721.44
2023-04-03T09:19:32.555Z,100725.47
2023-04-03T09:22:24.157Z,100726.50
2023-04-03T09:25:03.114Z,100726.41
2023-04-03T09:27:30.924Z,100735.53
2023-04-03T09:29:58.893Z,100731.97
2023-04-03T09:32:30.178Z,100734.59
2023-04-03T09:35:20.770Z,100740.00
2023-04-03T09:37:53.362Z,100739.41
2023-04-03T09:40:26.762Z,100732.37
2023-04-03T09:43:01.218Z,100737.19
2023-04-03T09:45:39.760Z,100728.09
2023-04-03T09:48:20.535Z,100721.44
2023-04-03T09:51:06.252Z,100723.66
2023-04-03T09:53:34.815Z,100730.44
2023-04-03T09:56:04.608Z,100717.59
2023-04-03T09:58:49.035Z,100721.56
2023-04-03T10:01:38.733Z,100729.34
2023-04-03T10:04:17.810Z,100704.31
2023-04-03T10:06:55.739Z,100724.13
2023-04-03T10:09:35.113Z,100723.19
2023-04-03T10:12:09.434Z,100704.38
2023-04-03T10:14:58.917Z,100702.59
2023-04-03T10:17:44.352Z,100694.22
2023-04-03T10:20:38.052Z,100689.00
2023-04-03T10:23:28.129Z,100687.31
2023-04-03T10:26:06.132Z,100690.94
2023-04-03T10:28:53.670Z,100695.34
2023-04-03T10:31:30.940Z,100693.84
2023-04-03T10:34:15.130Z,100685.88
2023-04-03T10:37:08.673Z,100697.81
2023-04-03T10:39:36.319Z,100685.19
2023-04-03T10:42:25.252Z,100676.47
2023-04-03T10:45:04.139Z,100675.59
2023-04-03T10:47:50.474Z,100672.13
2023-04-03T10:50:57.098Z,100683.53
2023-04-03T10:53:36.264Z,100681.78
2023-04-03T10:56:21.557Z,100678.22
2023-04-03T10:59:15.138Z,100674.72
2023-04-03T11:01:45.739Z,100664.19
2023-04-03T11:04:15.444Z,100661.56
2023-04-03T11:06:57.594Z,100650.13
2023-04-03T11:09:50.784Z,100650.06
2023-04-03T11:12:25.726Z,100653.66
2023-04-03T11:17:53.669Z,100660.72
2023-04-03T11:20:34.526Z,100672.13
2023-04-03T11:23:48.203Z,100675.62
2023-04-03T11:26:22.186Z,100677.34
2023-04-03T11:28:59.813Z,100665.94
2023-04-03T11:31:55.259Z,100657.22
2023-04-03T11:34:57.974Z,100661.59
2023-04-03T11:38:05.844Z,100654.47
2023-04-03T11:40:38.637Z,100656.34
2023-04-03T11:43:33.235Z,100666.88
2023-04-03T11:46:06.624Z,100655.50
2023-04-03T11:48:36.597Z,100659.88
2023-04-03T11:51:21.082Z,100665.03
2023-04-03T11:53:48.731Z,100658.97
2023-04-03T11:56:25.108Z,100663.31
2023-04-03T11:59:45.785Z,100659.75
2023-04-03T12:02:53.626Z,100653.75
2023-04-03T12:05:31.034Z,100643.22
2023-04-03T12:08:27.800Z,100650.22
2023-04-03T12:11:12.006Z,100644.97
2023-04-03T12:13:54.787Z,100649.34
2023-04-03T12:16:39.476Z,100639.72
2023-04-03T12:19:26.517Z,100648.44
2023-04-03T12:22:00.511Z,100632.38
2023-04-03T12:24:53.213Z,100624.53
2023-04-03T12:27:39.857Z,100637.97
2023-04-03T12:30:33.008Z,100642.38
2023-04-03T12:34:08.182Z,100645.84
2023-04-03T12:37:08.621Z,100633.59
2023-04-03T12:39:51.042Z,100639.59
2023-04-03T12:42:39.554Z,100637.06
2023-04-03T12:45:24.769Z,100646.72
2023-04-03T12:47:54.959Z,100630.09
2023-04-03T12:50:31.420Z,100614.31
2023-04-03T12:53:06.636Z,100628.34
2023-04-03T12:55:33.971Z,100626.59
2023-04-03T12:58:30.005Z,100613.47
2023-04-03T13:01:19.660Z,100616.97
2023-04-03T13:07:02.713Z,100627.31
2023-04-03T13:16:52.591Z,100613.50
2023-04-03T13:19:22.523Z,100614.34
2023-04-03T13:29:32.490Z,100609.97
2023-04-03T13:32:21.645Z,100607.22
2023-04-03T13:35:27.616Z,100615.97
2023-04-03T13:38:09.816Z,100605.53
2023-04-03T13:41:09.752Z,100588.03
2023-04-03T13:47:16.372Z,100599.44
2023-04-03T13:49:47.172Z,100596.81
2023-04-03T13:53:20.201Z,100586.34
2023-04-03T14:00:01.953Z,100590.69
2023-04-03T14:16:23.326Z,100578.41
2023-04-03T14:18:58.394Z,100596.69
2023-04-03T14:21:26.211Z,100608.06
2023-04-03T14:23:53.463Z,100603.56
2023-04-03T14:26:23.767Z,100609.31
2023-04-03T14:28:55.095Z,100607.38
2023-04-03T14:31:22.999Z,100601.56
2023-04-03T14:33:52.449Z,100599.81
2023-04-03T14:36:26.398Z,100599.91
2023-04-03T14:38:55.353Z,100606.44
2023-04-03T14:41:25.446Z,100602.28
2023-04-03T14:43:53.928Z,100597.78
2023-04-03T14:46:55.520Z,100609.94
2023-04-03T14:49:31.269Z,100610.22
2023-04-03T14:52:01.212Z,100621.28
2023-04-03T14:54:31.385Z,100627.25
2023-04-03T14:57:00.676Z,100629.91
2023-04-03T14:59:29.441Z,100624.84
2023-04-03T15:01:56.440Z,100613.16
2023-04-03T15:04:23.703Z,100612.53
2023-04-03T15:07:00.401Z,100620.25
2023-04-03T15:09:30.463Z,100625.22
2023-04-03T15:11:58.980Z,100629.87
2023-04-03T15:14:36.267Z,100626.41
2023-04-03T15:17:07.657Z,100622.94
2023-04-03T15:19:47.515Z,100606.44
2023-04-03T15:22:16.512Z,100617.09
2023-04-03T15:24:44.413Z,100606.66
2023-04-03T15:27:13.546Z,100604.72
2023-04-03T15:29:42.827Z,100613.41
2023-04-03T15:32:10.884Z,100612.63
2023-04-03T15:34:39.205Z,100622.00
2023-04-03T15:37:06.746Z,100621.09
2023-04-03T15:39:34.183Z,100614.28
2023-04-03T15:42:07.284Z,100618.81
2023-04-03T15:44:37.655Z,100617.19
2023-04-03T15:47:05.231Z,100621.84
2023-04-03T15:49:36.662Z,100627.13
2023-04-03T15:52:05.134Z,100620.78
2023-04-03T15:54:32.922Z,100638.59
2023-04-03T15:57:00.257Z,100629.94
2023-04-03T15:59:27.657Z,100628.97
2023-04-03T16:01:54.779Z,100629.41
2023-04-03T16:04:23.289Z,100624.75
2023-04-03T16:07:05.723Z,100637.06
2023-04-03T16:09:40.332Z,100633.22
2023-04-03T16:12:12.050Z,100636.03
2023-04-03T16:14:39.364Z,100619.00
2023-04-03T16:17:07.023Z,100630.97
2023-04-03T16:19:36.862Z,100627.31
2023-04-03T16:22:03.889Z,100621.31
2023-04-03T16:24:30.949Z,100626.41
2023-04-03T16:27:15.722Z,100627.00
2023-04-03T16:44:37.132Z,100645.84
2023-04-03T17:00:26.628Z,100631.41
2023-04-03T17:19:38.569Z,100657.84
2023-04-03T17:22:42.474Z,100655.62
2023-04-03T17:29:21.317Z,100651.97
2023-04-03T17:35:16.100Z,100654.72
2023-04-03T17:38:17.519Z,100672.06
2023-04-03T17:47:20.635Z,100700.47
2023-04-03T17:53:21.944Z,100701.50
2023-04-03T17:56:00.925Z,100705.31
2023-04-03T17:58:42.679Z,100710.63
2023-04-03T18:01:15.376Z,100710.88
2023-04-03T18:03:45.478Z,100713.56
2023-04-03T18:06:26.813Z,100727.00
2023-04-03T18:09:04.740Z,100737.59
2023-04-03T18:11:41.440Z,100740.44
2023-04-03T18:14:14.197Z,100748.06
2023-04-03T18:16:43.462Z,100756.84
2023-04-03T18:19:23.823Z,100756.66
2023-04-03T18:21:58.449Z,100756.50
2023-04-03T18:24:27.796Z,100764.91
2023-04-03T18:27:06.146Z,100769.91
2023-04-03T18:29:41.671Z,100774.25
2023-04-03T18:32:17.507Z,100775.50
2023-04-03T18:34:45.842Z,100781.56
2023-04-03T18:37:16.091Z,100781.22
2023-04-03T18:39:46.881Z,100773.03
2023-04-03T18:42:31.321Z,100755.87
2023-04-03T18:45:05.203Z,100756.84
2023-04-03T18:47:49.203Z,100770.31
2023-04-03T18:50:19.045Z,100754.56
2023-04-03T18:52:53.601Z,100772.75
2023-04-03T18:55:23.392Z,100762.97
2023-04-03T18:57:52.039Z,100745.63
2023-04-03T19:00:24.592Z,100745.87
2023-04-03T19:02:55.277Z,100734.84
2023-04-03T19:05:24.440Z,100730.41
2023-04-03T19:07:53.901Z,100725.00
2023-04-03T19:10:28.011Z,100715.97
2023-04-03T19:12:56.695Z,100721.63
2023-04-03T19:15:27.239Z,100721.19
2023-04-03T19:17:57.045Z,100715.69
2023-04-03T19:20:26.197Z,100727.41
2023-04-03T19:22:57.691Z,100725.22
2023-04-03T19:25:28.541Z,100729.56
2023-04-03T19:27:55.767Z,100718.25
2023-04-03T19:30:24.953Z,100727.78
2023-04-03T19:32:52.375Z,100712.09
2023-04-03T19:35:20.099Z,100724.31
2023-04-03T19:37:51.157Z,100711.97
2023-04-03T19:40:19.365Z,100729.53
2023-04-03T19:42:46.901Z,100715.72
2023-04-03T19:45:15.957Z,100717.59
2023-04-03T19:47:43.317Z,100726.91
2023-04-03T19:50:11.066Z,100730.78
2023-04-03T19:52:38.440Z,100728.34
2023-04-03T19:55:08.362Z,100715.34
2023-04-03T19:57:35.536Z,100709.31
2023-04-03T20:00:03.070Z,100710.12
2023-04-03T20:02:30.323Z,100713.69
2023-04-03T20:04:57.661Z,100700.56
2023-04-03T20:07:25.542Z,100705.81
2023-04-03T20:10:00.011Z,100693.06
2023-04-03T20:12:27.725Z,100693.81
2023-04-03T20:14:54.972Z,100704.94
2023-04-03T20:17:22.220Z,100696.31
2023-04-03T20:19:49.520Z,100699.97
2023-04-03T20:22:19.821Z,100709.25
2023-04-03T20:24:48.004Z,100705.88
2023-04-03T20:27:18.118Z,100716.56
2023-04-03T20:29:49.642Z,100708.53
2023-04-03T20:32:17.024Z,100708.19
2023-04-03T20:34:48.234Z,100702.19
2023-04-03T20:37:27.062Z,100703.84
2023-04-03T20:39:56.776Z,100712.63
2023-04-03T20:42:24.234Z,100698.53
2023-04-03T20:44:51.347Z,100711.28
2023-04-03T20:47:18.757Z,100697.47
2023-04-03T20:49:46.496Z,100715.69
2023-04-03T20:52:13.520Z,100715.03
2023-04-03T20:54:42.103Z,100700.31
2023-04-03T20:57:09.127Z,100712.94
2023-04-03T20:59:37.194Z,100700.97
2023-04-03T21:02:04.282Z,100714.53
2023-04-03T21:04:39.807Z,100725.16
2023-04-03T21:07:44.462Z,100715.63
2023-04-03T21:10:49.154Z,100724.50
2023-04-03T21:13:54.130Z,100727.84
2023-04-03T21:16:22.008Z,100737.53
2023-04-03T21:18:57.368Z,100747.28
2023-04-03T21:21:26.436Z,100752.56
2023-04-03T21:23:55.333Z,100745.09
2023-04-03T21:26:23.403Z,100731.19
2023-04-03T21:28:51.687Z,100747.53
2023-04-03T21:31:20.333Z,100747.28
2023-04-03T21:33:47.754Z,100745.50
2023-04-03T21:36:15.558Z,100743.13
2023-04-03T21:38:42.774Z,100743.53
2023-04-03T21:41:09.850Z,100735.19
2023-04-03T21:43:37.508Z,100740.22
2023-04-03T21:46:05.922Z,100734.22
2023-04-03T21:48:32.976Z,100745.81
2023-04-03T21:51:04.760Z,100736.50
2023-04-03T21:53:33.285Z,100741.53
2023-04-03T21:56:02.712Z,100752.34
2023-04-03T21:58:32.187Z,100736.16
2023-04-03T22:01:09.966Z,100749.19
2023-04-03T22:03:37.978Z,100738.69
2023-04-03T22:06:08.295Z,100737.53
2023-04-03T22:08:36.027Z,100742.44
2023-04-03T22:11:04.582Z,100733.88
2023-04-03T22:13:31.803Z,100739.06
2023-04-03T22:15:59.761Z,100750.06
2023-04-03T22:18:27.504Z,100747.84
2023-04-03T22:20:55.422Z,100736.62
2023-04-03T22:23:23.336Z,100748.72
2023-04-03T22:26:02.932Z,100737.53
2023-04-03T22:28:32.030Z,100743.75
2023-04-03T22:31:04.141Z,100740.69
2023-04-03T22:33:31.485Z,100740.22
2023-04-03T22:35:58.650Z,100734.84
2023-04-03T22:38:25.893Z,100733.75
2023-04-03T22:41:00.281Z,100737.53
2023-04-03T22:43:28.650Z,100730.28
2023-04-03T22:45:56.609Z,100732.66
2023-04-03T22:48:24.631Z,100735.41
2023-04-03T22:50:52.105Z,100734.22
2023-04-03T22:53:19.460Z,100737.88
2023-04-03T22:56:03.461Z,100753.91
2023-04-03T22:58:30.770Z,100747.22
2023-04-03T23:01:08.654Z,100753.97
2023-04-03T23:03:37.309Z,100751.56
2023-04-03T23:06:05.483Z,100762.06
2023-04-03T23:08:34.768Z,100767.31
2023-04-03T23:11:02.719Z,100772.44
2023-04-03T23:13:29.899Z,100783.88
2023-04-03T23:16:01.174Z,100772.56
2023-04-03T23:18:31.746Z,100777.69
2023-04-03T23:21:04.374Z,100773.19
2023-04-03T23:23:32.333Z,100783.44
2023-04-03T23:26:02.919Z,100782.19
2023-04-03T23:28:30.790Z,100787.25
2023-04-03T23:31:03.056Z,100790.22
2023-04-03T23:33:31.983Z,100793.16
2023-04-03T23:36:00.884Z,100793.31
2023-04-03T23:38:27.988Z,100807.81
2023-04-03T23:40:54.942Z,100805.84
2023-04-03T23:43:22.028Z,100808.41
2023-04-03T23:45:49.114Z,100808.25
2023-04-03T23:48:16.360Z,100806.94
2023-04-03T23:50:46.502Z,100804.84
2023-04-03T23:53:13.843Z,100807.06
2023-04-03T23:55:42.109Z,100803.97
2023-04-03T23:58:09.268Z,100800.91
